Time;durP1;ratioP1;P1;durP2;ratioP2;P2;SDS_P1;SDS_P2;PMS_P1;PMS_P2;Temp;Humidity;BMP_temperature;BMP_pressure;BME280_temperature;BME280_humidity;BME280_pressure;Samples;Min_cycle;Max_cycle;Signal;HPM_P1;HPM_P2
2023/10/21 00:00:58;;;;;;;11.85;6.72;;;11.60;99.90;;;;;;5108847;28;20352;-65
2023/10/21 00:03:25;;;;;;;11.52;7.00;;;12.00;99.90;;;;;;5109164;28;20086;-67
2023/10/21 00:05:53;;;;;;;12.18;6.65;;;11.60;99.90;;;;;;5083523;28;20086;-66
2023/10/21 00:08:19;;;;;;;11.68;6.97;;;11.80;99.90;;;;;;5088900;28;20266;-64
2023/10/21 00:10:45;;;;;;;10.05;6.22;;;11.80;99.90;;;;;;5088216;28;20352;-66
2023/10/21 00:13:12;;;;;;;11.68;6.45;;;11.90;99.90;;;;;;5088554;28;20468;-64
2023/10/21 00:15:39;;;;;;;9.90;6.10;;;12.00;99.90;;;;;;5094313;28;20077;-64
2023/10/21 00:18:06;;;;;;;10.18;6.28;;;11.90;99.90;;;;;;5109015;28;20051;-64
2023/10/21 00:20:32;;;;;;;11.50;7.00;;;11.90;99.90;;;;;;5108247;28;20361;-63
2023/10/21 00:22:58;;;;;;;10.40;6.30;;;11.90;99.90;;;;;;5108594;28;20439;-64
2023/10/21 00:25:24;;;;;;;10.13;6.32;;;11.40;99.90;;;;;;5108055;28;20035;-65
2023/10/21 00:27:51;;;;;;;9.38;6.07;;;11.70;99.90;;;;;;5108892;28;20092;-64
2023/10/21 00:30:17;;;;;;;12.73;6.70;;;11.80;99.90;;;;;;5108308;28;20051;-65
2023/10/21 00:32:43;;;;;;;13.70;6.80;;;11.70;99.90;;;;;;5092334;28;20067;-64
2023/10/21 00:35:09;;;;;;;11.55;6.68;;;11.30;99.90;;;;;;5107388;28;20078;-65
2023/10/21 00:37:36;;;;;;;10.40;6.55;;;11.20;99.90;;;;;;5075228;28;20056;-66
2023/10/21 00:40:03;;;;;;;8.75;6.03;;;11.70;99.90;;;;;;5091498;28;20063;-64
2023/10/21 00:42:31;;;;;;;9.10;7.03;;;11.40;99.90;;;;;;5093321;28;20052;-65
2023/10/21 00:44:57;;;;;;;10.63;6.55;;;11.30;99.90;;;;;;5095402;27;20113;-66
2023/10/21 00:47:23;;;;;;;11.95;6.13;;;11.30;99.90;;;;;;5074674;28;20048;-65
2023/10/21 00:49:50;;;;;;;10.52;6.65;;;11.10;99.90;;;;;;5074568;28;20144;-65
2023/10/21 00:52:16;;;;;;;12.95;7.25;;;11.10;99.90;;;;;;5075129;28;20535;-64
2023/10/21 00:54:42;;;;;;;10.48;6.40;;;11.20;99.90;;;;;;5074660;28;20056;-65
2023/10/21 00:57:09;;;;;;;12.98;6.18;;;11.10;99.90;;;;;;5112304;27;20058;-64
2023/10/21 00:59:35;;;;;;;12.30;6.70;;;11.00;99.90;;;;;;5115175;27;20065;-66
2023/10/21 01:02:02;;;;;;;8.77;6.40;;;11.00;99.90;;;;;;5098456;27;20050;-65
2023/10/21 01:04:28;;;;;;;10.32;6.40;;;11.50;99.90;;;;;;5115172;27;20043;-65
2023/10/21 01:06:55;;;;;;;11.63;6.63;;;11.00;99.90;;;;;;5098430;28;20055;-64
2023/10/21 01:09:22;;;;;;;8.60;6.43;;;11.00;99.90;;;;;;5094205;28;20062;-68
2023/10/21 01:11:48;;;;;;;9.95;6.75;;;11.10;99.90;;;;;;5095195;28;20059;-66
2023/10/21 01:14:15;;;;;;;13.02;6.75;;;10.90;99.90;;;;;;5094774;28;20039;-65
2023/10/21 01:16:41;;;;;;;10.85;5.85;;;11.40;99.90;;;;;;5109456;27;20480;-64
2023/10/21 01:19:07;;;;;;;9.68;6.18;;;10.90;99.90;;;;;;5097636;27;20459;-64
2023/10/21 01:21:34;;;;;;;11.07;6.60;;;11.10;99.90;;;;;;5114630;27;20047;-66
2023/10/21 01:24:00;;;;;;;9.55;6.00;;;10.90;99.90;;;;;;5115276;27;20390;-65
2023/10/21 01:26:27;;;;;;;12.60;6.38;;;10.90;99.90;;;;;;5101932;28;20176;-64
2023/10/21 01:28:53;;;;;;;10.77;6.38;;;10.80;99.90;;;;;;5094121;28;20051;-65
2023/10/21 01:31:21;;;;;;;8.43;5.57;;;11.00;99.90;;;;;;5094211;28;20047;-66
2023/10/21 01:33:47;;;;;;;8.75;6.18;;;11.40;99.90;;;;;;5094738;28;20379;-65
2023/10/21 01:36:14;;;;;;;11.57;5.47;;;10.90;99.90;;;;;;5104379;27;20366;-64
2023/10/21 01:38:40;;;;;;;11.77;6.07;;;11.10;99.90;;;;;;5114584;27;20050;-64
2023/10/21 01:41:10;;;;;;;10.75;6.45;;;11.30;99.90;;;;;;5113789;27;20254;-64
2023/10/21 01:43:36;;;;;;;11.45;5.85;;;11.30;99.90;;;;;;5110715;28;20475;-64
2023/10/21 01:46:05;;;;;;;9.57;6.20;;;11.30;99.90;;;;;;5101059;28;20059;-65
2023/10/21 01:48:31;;;;;;;7.95;5.68;;;10.90;99.90;;;;;;5090414;28;20054;-67
2023/10/21 01:51:04;;;;;;;7.75;5.72;;;10.80;99.90;;;;;;5090061;28;20060;-64
2023/10/21 01:53:31;;;;;;;8.40;5.97;;;11.20;99.90;;;;;;5090563;28;20048;-65
2023/10/21 01:56:02;;;;;;;10.43;6.00;;;10.70;99.90;;;;;;5081276;28;20051;-65
2023/10/21 01:58:29;;;;;;;9.15;6.53;;;11.10;99.90;;;;;;5111238;28;20478;-65
2023/10/21 02:00:55;;;;;;;10.18;6.90;;;10.70;99.90;;;;;;5093282;28;20096;-65
2023/10/21 02:03:22;;;;;;;12.48;6.97;;;10.80;99.90;;;;;;5110671;28;20452;-65
2023/10/21 02:05:48;;;;;;;10.70;7.22;;;11.30;99.90;;;;;;5103465;28;20122;-66
2023/10/21 02:08:14;;;;;;;11.43;7.32;;;10.90;99.90;;;;;;5090432;28;20059;-65
2023/10/21 02:10:41;;;;;;;10.90;7.70;;;11.00;99.90;;;;;;5073124;28;20052;-66
2023/10/21 02:13:07;;;;;;;14.30;7.75;;;11.30;99.90;;;;;;5073332;28;20050;-65
2023/10/21 02:15:36;;;;;;;12.77;8.65;;;11.00;99.90;;;;;;5094219;28;20044;-64
2023/10/21 02:18:04;;;;;;;15.32;8.25;;;10.70;99.90;;;;;;5093666;28;20055;-64
2023/10/21 02:20:30;;;;;;;13.45;9.05;;;10.70;99.90;;;;;;5109736;28;20066;-66
2023/10/21 02:22:56;;;;;;;13.48;8.77;;;10.80;99.90;;;;;;5110278;28;20047;-64
2023/10/21 02:25:23;;;;;;;11.98;8.43;;;11.20;99.90;;;;;;5106838;28;20035;-66
2023/10/21 02:27:49;;;;;;;13.57;9.20;;;10.80;99.90;;;;;;5089808;28;20051;-68
2023/10/21 02:30:17;;;;;;;14.18;8.85;;;10.70;99.90;;;;;;5089486;28;20063;-65
2023/10/21 02:32:44;;;;;;;15.60;9.82;;;11.10;99.90;;;;;;5089938;28;20058;-65
2023/10/21 02:35:11;;;;;;;15.00;9.77;;;11.10;99.90;;;;;;5073825;28;20056;-64
2023/10/21 02:37:37;;;;;;;16.42;9.07;;;11.20;99.90;;;;;;5109957;28;20099;-64
2023/10/21 02:40:04;;;;;;;13.57;9.45;;;10.70;99.90;;;;;;5109257;28;20051;-64
2023/10/21 02:42:30;;;;;;;15.45;9.82;;;10.70;99.90;;;;;;5111225;27;20051;-66
2023/10/21 02:44:57;;;;;;;15.25;9.85;;;10.70;99.90;;;;;;5113472;27;20398;-64
2023/10/21 02:47:23;;;;;;;13.27;9.20;;;10.70;99.90;;;;;;5112432;27;20058;-66
2023/10/21 02:49:49;;;;;;;16.02;9.65;;;11.20;99.90;;;;;;5112763;27;20482;-66
2023/10/21 02:52:16;;;;;;;16.50;10.02;;;11.10;99.90;;;;;;5113227;27;20055;-66
2023/10/21 02:54:42;;;;;;;15.15;10.77;;;11.00;99.90;;;;;;5112985;27;20104;-64
2023/10/21 02:57:08;;;;;;;17.75;11.95;;;10.90;99.90;;;;;;5078376;28;20060;-66
2023/10/21 02:59:35;;;;;;;14.95;10.15;;;10.60;99.90;;;;;;5074864;28;20051;-66
2023/10/21 03:02:01;;;;;;;16.55;11.07;;;11.00;99.90;;;;;;5092834;28;20150;-66
2023/10/21 03:04:28;;;;;;;20.73;11.60;;;11.10;99.90;;;;;;5092533;28;20043;-64
2023/10/21 03:06:54;;;;;;;19.10;10.43;;;11.10;99.90;;;;;;5108143;27;20055;-66
2023/10/21 03:09:22;;;;;;;19.38;12.57;;;11.10;99.90;;;;;;5112713;27;20039;-65
2023/10/21 03:11:48;;;;;;;18.83;11.85;;;10.60;99.90;;;;;;5113393;27;20040;-66
2023/10/21 03:14:14;;;;;;;20.17;11.80;;;10.90;99.90;;;;;;5112947;27;20043;-64
2023/10/21 03:16:40;;;;;;;18.45;11.90;;;10.50;99.90;;;;;;5099224;28;20047;-67
2023/10/21 03:19:07;;;;;;;16.83;12.55;;;10.60;99.90;;;;;;5091775;28;20062;-65
2023/10/21 03:21:33;;;;;;;16.17;10.60;;;10.90;99.90;;;;;;5092046;28;20047;-65
2023/10/21 03:23:59;;;;;;;18.55;11.40;;;11.00;99.90;;;;;;5092684;28;20048;-64
2023/10/21 03:26:25;;;;;;;19.85;12.10;;;10.90;99.90;;;;;;5103267;28;20051;-63
2023/10/21 03:28:52;;;;;;;20.55;11.88;;;10.50;99.90;;;;;;5112226;28;20053;-66
2023/10/21 03:31:18;;;;;;;20.77;11.90;;;10.50;99.90;;;;;;5095953;28;20051;-66
2023/10/21 03:33:45;;;;;;;21.08;12.48;;;11.00;99.90;;;;;;5112541;28;20055;-64
2023/10/21 03:36:11;;;;;;;19.35;11.20;;;10.50;99.90;;;;;;5102992;28;20055;-65
2023/10/21 03:38:37;;;;;;;16.60;11.00;;;10.70;99.90;;;;;;5092070;28;20047;-64
2023/10/21 03:41:11;;;;;;;17.42;11.60;;;10.50;99.90;;;;;;5091663;28;20105;-67
2023/10/21 03:43:38;;;;;;;18.80;11.70;;;10.80;99.90;;;;;;5092072;28;20040;-64
2023/10/21 03:46:14;;;;;;;16.25;11.55;;;10.70;99.90;;;;;;5083853;28;20066;-65
2023/10/21 03:48:41;;;;;;;20.73;12.23;;;10.50;99.90;;;;;;5071872;28;20457;-68
2023/10/21 03:51:12;;;;;;;22.58;12.32;;;10.60;99.90;;;;;;5072165;28;20047;-65
2023/10/21 03:53:43;;;;;;;20.70;12.13;;;10.40;99.90;;;;;;5072123;28;20117;-66
2023/10/21 03:56:10;;;;;;;20.08;12.15;;;10.50;99.90;;;;;;5048037;28;20364;-64
2023/10/21 03:58:37;;;;;;;19.50;12.45;;;10.70;99.90;;;;;;5092337;28;20151;-65
2023/10/21 04:01:05;;;;;;;19.20;12.50;;;10.90;99.90;;;;;;5091832;28;20048;-66
2023/10/21 04:03:31;;;;;;;19.08;12.27;;;10.80;99.90;;;;;;5075435;28;20059;-65
2023/10/21 04:05:58;;;;;;;18.85;12.32;;;10.50;99.90;;;;;;5084898;28;20087;-64
2023/10/21 04:08:26;;;;;;;19.83;12.73;;;10.50;99.90;;;;;;5072267;28;20050;-65
2023/10/21 04:10:52;;;;;;;19.73;12.27;;;10.60;99.90;;;;;;5073545;28;20058;-64
2023/10/21 04:13:19;;;;;;;20.52;12.80;;;11.00;99.90;;;;;;5075557;28;20055;-67
2023/10/21 04:15:45;;;;;;;26.70;13.60;;;10.50;99.90;;;;;;5080471;28;20546;-65
2023/10/21 04:18:12;;;;;;;19.45;12.40;;;10.60;99.90;;;;;;5095820;28;20055;-65
2023/10/21 04:20:39;;;;;;;18.50;13.85;;;10.90;99.90;;;;;;5094728;28;20458;-64
2023/10/21 04:23:05;;;;;;;18.27;13.13;;;10.90;99.90;;;;;;5095812;28;20050;-64
2023/10/21 04:25:32;;;;;;;18.70;13.43;;;10.80;99.90;;;;;;5091936;28;20044;-66
2023/10/21 04:27:58;;;;;;;22.85;13.02;;;10.70;99.90;;;;;;5075706;28;20052;-64
2023/10/21 04:30:25;;;;;;;20.48;13.23;;;10.60;99.90;;;;;;5074604;28;20059;-65
2023/10/21 04:32:52;;;;;;;18.30;13.10;;;10.80;99.90;;;;;;5075428;28;20387;-65
2023/10/21 04:35:19;;;;;;;20.17;14.40;;;10.60;99.90;;;;;;5076172;28;20052;-67
2023/10/21 04:37:45;;;;;;;21.52;13.30;;;11.10;99.90;;;;;;5095363;28;20048;-65
2023/10/21 04:40:13;;;;;;;22.05;13.88;;;10.60;99.90;;;;;;5094975;28;20051;-66
2023/10/21 04:42:39;;;;;;;20.70;13.48;;;11.00;99.90;;;;;;5095098;28;20052;-63
2023/10/21 04:45:08;;;;;;;19.63;12.63;;;10.70;99.90;;;;;;5095451;28;20048;-66
2023/10/21 04:47:34;;;;;;;22.75;12.82;;;10.70;99.90;;;;;;5097697;27;20047;-65
2023/10/21 04:50:00;;;;;;;22.90;13.02;;;10.50;99.90;;;;;;5115050;27;20467;-64
2023/10/21 04:52:27;;;;;;;22.23;12.45;;;11.00;99.90;;;;;;5115623;27;20416;-63
2023/10/21 04:54:53;;;;;;;18.60;13.00;;;11.00;99.90;;;;;;5098340;27;20051;-65
2023/10/21 04:57:19;;;;;;;16.77;11.48;;;10.70;99.90;;;;;;5097092;28;20055;-62
2023/10/21 04:59:46;;;;;;;18.42;13.00;;;10.70;99.90;;;;;;5095087;28;20048;-66
2023/10/21 05:02:12;;;;;;;18.27;13.00;;;10.80;99.90;;;;;;5095014;28;20055;-64
2023/10/21 05:04:39;;;;;;;18.45;12.20;;;10.70;99.90;;;;;;5094660;28;20055;-65
2023/10/21 05:07:07;;;;;;;21.83;12.70;;;10.90;99.90;;;;;;5093378;27;20056;-65
2023/10/21 05:09:33;;;;;;;18.40;12.13;;;11.00;99.90;;;;;;5114634;27;20050;-63
2023/10/21 05:12:02;;;;;;;18.77;11.85;;;11.10;99.90;;;;;;5098403;27;20043;-63
2023/10/21 05:14:28;;;;;;;18.08;12.27;;;10.60;99.90;;;;;;5115019;27;20458;-65
2023/10/21 05:16:55;;;;;;;17.58;11.90;;;11.10;99.90;;;;;;5100322;28;20059;-64
2023/10/21 05:19:22;;;;;;;18.42;12.52;;;10.90;99.90;;;;;;5094248;28;20137;-66
2023/10/21 05:21:48;;;;;;;18.42;11.82;;;10.70;99.90;;;;;;5094203;28;20065;-64
2023/10/21 05:24:14;;;;;;;19.63;11.55;;;11.20;99.90;;;;;;5094308;28;20406;-64
2023/10/21 05:26:41;;;;;;;16.65;11.52;;;11.00;99.90;;;;;;5106802;27;20047;-64
2023/10/21 05:29:07;;;;;;;21.08;11.07;;;10.70;99.90;;;;;;5114427;27;20067;-63
2023/10/21 05:31:33;;;;;;;16.73;12.05;;;11.20;99.90;;;;;;5097979;27;20421;-64
2023/10/21 05:34:00;;;;;;;16.25;12.15;;;11.20;99.90;;;;;;5114536;27;20259;-63
2023/10/21 05:36:26;;;;;;;17.40;11.55;;;11.20;99.90;;;;;;5104204;28;20051;-63
2023/10/21 05:38:53;;;;;;;16.85;10.65;;;11.30;99.90;;;;;;5076961;28;20391;-65
2023/10/21 05:41:20;;;;;;;15.63;9.80;;;10.80;99.90;;;;;;5094197;28;20048;-63
2023/10/21 05:43:46;;;;;;;16.38;11.02;;;11.20;99.90;;;;;;5093895;28;20052;-63
2023/10/21 05:46:13;;;;;;;13.32;10.63;;;10.80;99.90;;;;;;5085432;28;20052;-64
2023/10/21 05:48:40;;;;;;;16.42;10.50;;;11.30;99.90;;;;;;5073546;28;20096;-64
2023/10/21 05:51:06;;;;;;;16.65;10.85;;;10.80;99.90;;;;;;5056716;28;20058;-64
2023/10/21 05:53:33;;;;;;;16.02;10.70;;;11.10;99.90;;;;;;5073699;28;20044;-63
2023/10/21 05:55:59;;;;;;;14.75;11.30;;;11.30;99.90;;;;;;5079557;28;20058;-63
2023/10/21 05:58:26;;;;;;;17.33;10.18;;;11.30;99.90;;;;;;5093836;28;20051;-67
2023/10/21 06:00:53;;;;;;;14.45;10.43;;;11.30;99.90;;;;;;5093615;28;20048;-64
2023/10/21 06:03:19;;;;;;;19.52;11.00;;;11.30;99.90;;;;;;5093705;28;20375;-64
2023/10/21 06:05:45;;;;;;;15.75;10.13;;;10.80;99.90;;;;;;5089099;28;20244;-64
2023/10/21 06:08:12;;;;;;;15.65;10.00;;;11.30;99.90;;;;;;5073216;28;20052;-63
2023/10/21 06:10:39;;;;;;;16.98;10.75;;;11.30;99.90;;;;;;5072744;28;20397;-63
2023/10/21 06:13:05;;;;;;;13.90;10.65;;;11.20;99.90;;;;;;5073007;28;20055;-65
2023/10/21 06:15:32;;;;;;;15.45;10.48;;;11.30;99.90;;;;;;5058692;28;20151;-63
2023/10/21 06:17:59;;;;;;;16.15;10.00;;;11.40;99.90;;;;;;5093659;28;20108;-63
2023/10/21 06:20:25;;;;;;;15.38;9.80;;;11.00;99.90;;;;;;5092791;28;20051;-63
2023/10/21 06:22:51;;;;;;;16.55;10.63;;;11.00;99.90;;;;;;5093460;28;20577;-64
2023/10/21 06:25:18;;;;;;;14.50;9.95;;;11.30;99.90;;;;;;5092711;28;20047;-64
2023/10/21 06:27:44;;;;;;;17.88;10.65;;;11.50;99.90;;;;;;5073221;28;20044;-65
2023/10/21 06:30:11;;;;;;;18.65;10.30;;;11.60;99.90;;;;;;5077925;28;20051;-66
2023/10/21 06:32:37;;;;;;;15.40;10.73;;;11.20;99.90;;;;;;5092741;28;20051;-65
2023/10/21 06:35:05;;;;;;;15.45;11.25;;;11.30;99.90;;;;;;5092949;28;20055;-64
2023/10/21 06:37:32;;;;;;;15.07;9.95;;;11.50;99.90;;;;;;5057483;28;20101;-63
2023/10/21 06:39:58;;;;;;;15.35;10.18;;;11.40;99.90;;;;;;5072607;28;20708;-62
2023/10/21 06:42:24;;;;;;;16.15;10.88;;;11.50;99.90;;;;;;5072650;28;20364;-65
2023/10/21 06:44:50;;;;;;;15.95;9.02;;;11.70;99.90;;;;;;5056346;28;20298;-65
2023/10/21 06:47:17;;;;;;;15.10;10.23;;;11.30;99.90;;;;;;5106700;27;20389;-64
2023/10/21 06:49:45;;;;;;;15.95;10.70;;;11.60;99.90;;;;;;5113143;27;20070;-64
2023/10/21 06:52:11;;;;;;;14.75;9.82;;;11.30;99.90;;;;;;5102616;28;20055;-64
2023/10/21 06:54:37;;;;;;;13.55;9.25;;;11.60;99.90;;;;;;5092612;28;20047;-64
2023/10/21 06:57:04;;;;;;;14.57;10.23;;;11.60;99.90;;;;;;5107588;27;20451;-63
2023/10/21 06:59:32;;;;;;;15.45;11.18;;;11.50;99.90;;;;;;5112679;27;20043;-63
2023/10/21 07:01:59;;;;;;;15.40;11.02;;;11.90;99.90;;;;;;5112852;27;20050;-64
2023/10/21 07:04:26;;;;;;;15.63;10.13;;;11.80;99.90;;;;;;5112769;27;20092;-64
2023/10/21 07:06:52;;;;;;;14.27;9.38;;;11.80;99.90;;;;;;5082395;28;20112;-66
2023/10/21 07:09:18;;;;;;;14.25;9.88;;;11.70;99.90;;;;;;5091868;28;20047;-66
2023/10/21 07:11:45;;;;;;;16.58;10.23;;;11.70;99.90;;;;;;5092796;28;20047;-64
2023/10/21 07:14:12;;;;;;;17.45;10.77;;;12.00;99.90;;;;;;5092367;28;20059;-62
2023/10/21 07:16:40;;;;;;;15.65;10.65;;;11.90;99.90;;;;;;5095886;28;20055;-64
2023/10/21 07:19:06;;;;;;;15.85;10.27;;;12.30;99.90;;;;;;5091535;28;20062;-65
2023/10/21 07:21:32;;;;;;;17.45;10.18;;;12.20;99.90;;;;;;5089773;28;20040;-62
2023/10/21 07:24:00;;;;;;;15.70;9.60;;;12.00;99.90;;;;;;5091826;28;20478;-64
2023/10/21 07:26:27;;;;;;;15.48;9.77;;;12.00;99.90;;;;;;5089576;28;20048;-64
2023/10/21 07:28:53;;;;;;;14.57;9.02;;;12.00;99.90;;;;;;5090551;28;20044;-62
2023/10/21 07:31:19;;;;;;;14.77;9.50;;;12.10;99.90;;;;;;5091147;28;20100;-65
2023/10/21 07:33:45;;;;;;;14.88;9.05;;;12.00;99.90;;;;;;5091212;28;20044;-67
2023/10/21 07:36:12;;;;;;;14.68;8.90;;;12.10;99.90;;;;;;5098810;28;20409;-65
2023/10/21 07:38:38;;;;;;;12.35;9.20;;;12.00;99.90;;;;;;5100096;28;20488;-63
2023/10/21 07:41:12;;;;;;;14.70;9.73;;;12.30;99.90;;;;;;5091600;28;20187;-63
2023/10/21 07:43:38;;;;;;;16.73;10.60;;;12.00;99.90;;;;;;5093230;28;20504;-63
2023/10/21 07:46:04;;;;;;;13.68;9.50;;;12.00;99.90;;;;;;5082778;28;20040;-64
2023/10/21 07:48:31;;;;;;;15.73;10.32;;;12.00;99.90;;;;;;5099060;27;20035;-64
2023/10/21 07:50:58;;;;;;;16.85;9.95;;;12.40;99.90;;;;;;5081569;28;20062;-63
2023/10/21 07:53:24;;;;;;;13.90;9.52;;;12.30;99.90;;;;;;5080437;28;20043;-65
2023/10/21 07:55:53;;;;;;;15.75;9.95;;;12.60;99.90;;;;;;5082337;27;20043;-62
2023/10/21 07:58:20;;;;;;;14.30;9.55;;;12.70;99.90;;;;;;5104684;27;20048;-64
2023/10/21 08:00:46;;;;;;;16.67;9.50;;;12.60;99.90;;;;;;5097472;28;20058;-63
2023/10/21 08:03:13;;;;;;;13.70;8.68;;;12.90;99.90;;;;;;5096827;28;20059;-64
2023/10/21 08:05:39;;;;;;;15.25;9.05;;;12.90;99.90;;;;;;5078900;27;20360;-64
2023/10/21 08:08:05;;;;;;;15.13;8.60;;;12.90;99.90;;;;;;5097382;28;20039;-65
2023/10/21 08:10:32;;;;;;;10.27;8.25;;;13.20;99.90;;;;;;5080172;28;20047;-64
2023/10/21 08:12:59;;;;;;;12.13;7.88;;;13.40;99.90;;;;;;5096573;28;20069;-64
2023/10/21 08:15:25;;;;;;;17.48;8.77;;;13.60;99.90;;;;;;5079180;27;20040;-67
2023/10/21 08:17:51;;;;;;;10.63;8.18;;;13.50;99.90;;;;;;5097772;28;20048;-64
2023/10/21 08:20:18;;;;;;;11.25;8.05;;;13.40;99.90;;;;;;5096728;28;20043;-65
2023/10/21 08:22:44;;;;;;;13.68;7.53;;;13.90;99.90;;;;;;5096376;28;20047;-63
2023/10/21 08:25:10;;;;;;;12.90;7.63;;;13.60;99.90;;;;;;5079601;28;20047;-63
2023/10/21 08:27:37;;;;;;;12.40;7.32;;;14.10;99.90;;;;;;5097057;28;20059;-65
2023/10/21 08:30:05;;;;;;;11.38;7.05;;;13.90;99.90;;;;;;5096762;28;20039;-63
2023/10/21 08:32:31;;;;;;;13.48;8.25;;;13.90;99.90;;;;;;5080800;28;20093;-64
2023/10/21 08:34:58;;;;;;;11.02;6.78;;;14.20;99.90;;;;;;5097357;28;20479;-65
2023/10/21 08:37:24;;;;;;;12.82;7.00;;;14.00;99.90;;;;;;5099169;28;20112;-64
2023/10/21 08:39:50;;;;;;;10.32;7.28;;;13.80;99.90;;;;;;5076894;28;20055;-65
2023/10/21 08:42:18;;;;;;;10.45;7.10;;;14.20;99.90;;;;;;5096979;28;20043;-63
2023/10/21 08:44:45;;;;;;;11.63;7.43;;;14.00;99.90;;;;;;5096389;28;20043;-62
2023/10/21 08:47:13;;;;;;;10.60;6.15;;;14.10;99.90;;;;;;5096697;28;20050;-64
2023/10/21 08:49:41;;;;;;;11.43;5.95;;;14.40;99.90;;;;;;5096864;28;20039;-63
2023/10/21 08:52:14;;;;;;;7.15;5.57;;;14.20;99.90;;;;;;5095337;28;20051;-66
2023/10/21 08:54:46;;;;;;;11.18;6.38;;;14.50;99.90;;;;;;5079366;28;20058;-63
2023/10/21 08:57:12;;;;;;;9.07;5.22;;;14.30;99.90;;;;;;5095609;28;20059;-64
2023/10/21 08:59:39;;;;;;;8.60;4.63;;;14.30;99.90;;;;;;5077878;28;20101;-64
2023/10/21 09:02:06;;;;;;;9.93;6.15;;;14.60;99.90;;;;;;5095839;28;20360;-65
2023/10/21 09:04:32;;;;;;;10.63;4.85;;;14.50;99.90;;;;;;5086413;27;20107;-62
2023/10/21 09:07:00;;;;;;;7.30;5.38;;;14.30;99.90;;;;;;5099291;28;20051;-64
2023/10/21 09:09:28;;;;;;;7.50;4.35;;;14.30;99.90;;;;;;5095592;28;20043;-64
2023/10/21 09:12:13;;;;;;;9.43;5.05;;;14.20;99.90;;;;;;5094767;28;20047;-63
2023/10/21 09:15:01;;;;;;;9.18;5.90;;;14.40;99.90;;;;;;5096392;28;20058;-64
2023/10/21 09:17:36;;;;;;;8.25;5.10;;;14.10;99.90;;;;;;5096914;28;20444;-66
2023/10/21 09:20:14;;;;;;;7.00;4.72;;;14.00;99.90;;;;;;5079354;28;20062;-64
2023/10/21 09:22:42;;;;;;;8.95;5.03;;;14.00;99.90;;;;;;5094801;28;20035;-64
2023/10/21 09:25:09;;;;;;;7.85;4.65;;;14.30;99.90;;;;;;5070733;28;20047;-64
2023/10/21 09:27:38;;;;;;;7.80;4.50;;;14.00;99.90;;;;;;5076929;28;20603;-63
2023/10/21 09:30:05;;;;;;;8.15;4.70;;;13.90;99.90;;;;;;5095640;28;20100;-64
2023/10/21 09:32:33;;;;;;;7.45;4.25;;;14.20;99.90;;;;;;5096302;28;20059;-64
2023/10/21 09:35:26;;;;;;;6.40;4.35;;;14.00;99.90;;;;;;5114791;28;20120;-63
2023/10/21 09:37:53;;;;;;;4.68;4.03;;;13.90;99.90;;;;;;5116337;27;20542;-63
2023/10/21 09:40:21;;;;;;;6.80;4.22;;;14.00;99.90;;;;;;5113735;27;20053;-65
2023/10/21 09:42:54;;;;;;;5.88;3.78;;;14.10;99.90;;;;;;5095734;28;20048;-63
2023/10/21 09:45:24;;;;;;;5.63;3.88;;;13.90;99.90;;;;;;5096107;28;20043;-66
2023/10/21 09:47:56;;;;;;;5.47;4.07;;;13.90;99.90;;;;;;5096626;28;20051;-65
2023/10/21 09:50:24;;;;;;;5.68;4.03;;;13.90;99.90;;;;;;5115434;27;20050;-64
2023/10/21 09:53:16;;;;;;;5.60;3.97;;;13.80;99.90;;;;;;5116173;27;20039;-66
2023/10/21 09:55:43;;;;;;;6.00;3.80;;;14.20;99.90;;;;;;5114114;28;20108;-65
2023/10/21 09:58:11;;;;;;;5.18;3.53;;;14.10;99.90;;;;;;5095905;28;20352;-65
2023/10/21 10:00:38;;;;;;;5.72;2.65;;;13.80;99.90;;;;;;5114073;28;20047;-64
2023/10/21 10:03:06;;;;;;;4.43;4.03;;;14.00;99.90;;;;;;5095046;28;20065;-65
2023/10/21 10:05:33;;;;;;;2.55;1.83;;;14.00;99.90;;;;;;5072857;27;20101;-64
2023/10/21 10:07:59;;;;;;;1.85;1.50;;;13.90;99.90;;;;;;5115882;27;20047;-64
2023/10/21 10:10:27;;;;;;;2.95;1.90;;;13.80;99.90;;;;;;5115552;27;20075;-64
2023/10/21 10:13:07;;;;;;;2.22;1.48;;;13.60;99.90;;;;;;5099223;27;20054;-63
2023/10/21 10:15:38;;;;;;;2.17;1.63;;;13.80;99.90;;;;;;5109850;27;20039;-63
2023/10/21 10:18:08;;;;;;;2.63;1.52;;;14.10;99.90;;;;;;5101349;27;20065;-64
2023/10/21 10:20:43;;;;;;;2.03;1.45;;;14.00;99.90;;;;;;5110709;28;20051;-63
2023/10/21 10:23:10;;;;;;;3.67;1.50;;;14.20;99.90;;;;;;5093995;28;20059;-65
2023/10/21 10:25:43;;;;;;;3.60;2.15;;;14.00;99.90;;;;;;5095251;28;20046;-65
2023/10/21 10:28:18;;;;;;;3.40;1.73;;;14.10;99.90;;;;;;5093504;28;20048;-62
2023/10/21 10:30:49;;;;;;;2.72;1.90;;;14.20;99.90;;;;;;5091692;28;20380;-63
2023/10/21 10:33:17;;;;;;;3.72;1.60;;;14.40;99.90;;;;;;5093006;28;20039;-64
2023/10/21 10:35:52;;;;;;;2.17;1.45;;;14.10;99.90;;;;;;5094063;27;20044;-65
2023/10/21 10:38:20;;;;;;;3.90;1.60;;;14.40;99.90;;;;;;5112516;27;20051;-66
2023/10/21 10:40:47;;;;;;;3.53;1.75;;;14.30;99.90;;;;;;5111999;27;20052;-65
2023/10/21 10:43:16;;;;;;;2.78;1.45;;;14.30;99.90;;;;;;5094851;27;20111;-64
2023/10/21 10:45:42;;;;;;;3.13;1.67;;;14.40;99.90;;;;;;5094384;27;20096;-64
2023/10/21 10:48:10;;;;;;;2.80;1.83;;;14.50;99.90;;;;;;5092929;28;20070;-63
2023/10/21 10:50:36;;;;;;;3.92;1.60;;;14.30;99.90;;;;;;5076598;28;20051;-63
2023/10/21 10:53:18;;;;;;;3.17;1.50;;;14.30;99.90;;;;;;5093334;28;20069;-64
2023/10/21 10:55:48;;;;;;;2.40;1.55;;;14.50;99.90;;;;;;5094640;27;20391;-64
2023/10/21 10:58:15;;;;;;;3.58;1.73;;;14.40;99.90;;;;;;5113381;27;20141;-64
2023/10/21 11:00:41;;;;;;;3.15;1.38;;;14.20;99.90;;;;;;5113193;27;20051;-66
2023/10/21 11:03:08;;;;;;;1.77;1.45;;;14.10;99.90;;;;;;5113218;27;20051;-64
2023/10/21 11:05:37;;;;;;;2.45;1.20;;;14.30;99.90;;;;;;5112860;27;20069;-65
2023/10/21 11:08:07;;;;;;;2.75;1.52;;;14.20;99.90;;;;;;5072219;28;20052;-63
2023/10/21 11:10:34;;;;;;;2.90;1.33;;;14.30;99.90;;;;;;5072341;28;20044;-63
2023/10/21 11:13:03;;;;;;;2.72;1.30;;;14.10;99.90;;;;;;5072720;28;20536;-62
2023/10/21 11:15:29;;;;;;;2.55;1.45;;;14.10;99.90;;;;;;5072641;28;20060;-63
2023/10/21 11:17:55;;;;;;;2.13;1.00;;;14.10;99.90;;;;;;5111487;27;20398;-64
2023/10/21 11:20:22;;;;;;;2.15;1.52;;;14.20;99.90;;;;;;5095822;28;20353;-63
2023/10/21 11:22:48;;;;;;;1.98;1.17;;;14.20;99.90;;;;;;5095619;27;20043;-66
2023/10/21 11:25:14;;;;;;;1.98;1.20;;;14.20;99.90;;;;;;5112836;27;20069;-64
2023/10/21 11:27:41;;;;;;;2.70;1.50;;;14.10;99.90;;;;;;5094570;28;20512;-63
2023/10/21 11:30:08;;;;;;;3.70;1.30;;;14.30;99.90;;;;;;5075199;28;20054;-63
2023/10/21 11:32:37;;;;;;;2.63;1.40;;;14.20;99.90;;;;;;5092109;28;20105;-64
2023/10/21 11:35:05;;;;;;;4.03;1.27;;;14.30;99.90;;;;;;5092011;28;20233;-64
2023/10/21 11:37:32;;;;;;;2.80;1.15;;;14.40;99.90;;;;;;5108416;28;20051;-63
2023/10/21 11:39:58;;;;;;;2.60;1.27;;;14.60;99.90;;;;;;5095115;28;20386;-62
2023/10/21 11:42:25;;;;;;;2.78;1.50;;;14.80;99.90;;;;;;5112369;28;20506;-65
2023/10/21 11:45:00;;;;;;;4.63;1.45;;;14.70;99.90;;;;;;5095554;28;20050;-65
2023/10/21 11:47:28;;;;;;;2.10;1.20;;;14.90;99.90;;;;;;5096656;28;20520;-64
2023/10/21 11:49:55;;;;;;;2.58;0.93;;;15.00;99.90;;;;;;5074975;28;20043;-64
2023/10/21 11:52:22;;;;;;;2.72;1.20;;;15.00;99.90;;;;;;5075722;28;20406;-65
2023/10/21 11:55:20;;;;;;;3.17;1.35;;;14.90;99.90;;;;;;5092187;28;20051;-64
2023/10/21 12:08:58;;;;;;;2.85;1.40;;;15.10;99.90;;;;;;5091618;28;20051;-66
2023/10/21 12:19:16;;;;;;;3.38;1.50;;;15.20;99.90;;;;;;5112362;28;20390;-63
2023/10/21 12:22:12;;;;;;;4.10;1.40;;;15.30;99.90;;;;;;5111883;28;20315;-64
2023/10/21 12:24:58;;;;;;;1.58;1.13;;;15.40;99.90;;;;;;5112056;28;20107;-65
2023/10/21 12:32:46;;;;;;;1.80;1.02;;;15.40;99.90;;;;;;5095005;28;20055;-64
2023/10/21 12:45:54;;;;;;;2.65;1.20;;;15.40;99.90;;;;;;5111856;28;20054;-65
2023/10/21 12:48:21;;;;;;;3.50;1.60;;;15.40;99.90;;;;;;5074959;28;20383;-65
2023/10/21 12:50:49;;;;;;;3.58;1.10;;;15.50;99.90;;;;;;5091205;28;20254;-63
2023/10/21 12:53:19;;;;;;;6.05;1.80;;;15.60;99.90;;;;;;5071393;28;20166;-63
2023/10/21 12:55:46;;;;;;;4.65;1.50;;;15.70;99.90;;;;;;5057257;28;20049;-64
2023/10/21 12:58:14;;;;;;;3.40;1.20;;;15.70;99.90;;;;;;5112093;28;20062;-63
2023/10/21 13:00:46;;;;;;;4.38;1.50;;;15.70;99.90;;;;;;5092945;28;20069;-64
2023/10/21 13:03:12;;;;;;;2.38;1.05;;;15.70;99.90;;;;;;5091652;28;20534;-63
2023/10/21 13:05:40;;;;;;;4.07;1.67;;;15.70;99.90;;;;;;5091224;28;20414;-64
2023/10/21 13:08:09;;;;;;;5.57;1.42;;;15.70;99.90;;;;;;5111523;28;20044;-63
2023/10/21 13:10:36;;;;;;;3.10;1.70;;;15.80;99.90;;;;;;5112055;28;20048;-64
2023/10/21 13:13:06;;;;;;;3.47;1.45;;;15.80;99.90;;;;;;5080040;28;20245;-64